sensor_id;sensor_type;location;lat;lon;timestamp;P1;durP1;ratioP1;P2;durP2;ratioP2
29938;SDS011;16799;50.844;5.304;2023-12-20T00:00:25;15.83;;;4.60;;
29938;SDS011;16799;50.844;5.304;2023-12-20T00:02:51;10.90;;;3.67;;
29938;SDS011;16799;50.844;5.304;2023-12-20T00:05:16;8.50;;;3.50;;
29938;SDS011;16799;50.844;5.304;2023-12-20T00:07:42;5.43;;;2.23;;
29938;SDS011;16799;50.844;5.304;2023-12-20T00:10:08;6.83;;;4.17;;
29938;SDS011;16799;50.844;5.304;2023-12-20T00:12:34;17.93;;;2.33;;
29938;SDS011;16799;50.844;5.304;2023-12-20T00:14:59;17.40;;;2.90;;
29938;SDS011;16799;50.844;5.304;2023-12-20T00:17:25;9.87;;;2.37;;
29938;SDS011;16799;50.844;5.304;2023-12-20T00:19:51;6.70;;;2.50;;
29938;SDS011;16799;50.844;5.304;2023-12-20T00:22:16;3.10;;;1.70;;
29938;SDS011;16799;50.844;5.304;2023-12-20T00:24:42;25.17;;;3.10;;
29938;SDS011;16799;50.844;5.304;2023-12-20T00:27:07;9.97;;;2.93;;
29938;SDS011;16799;50.844;5.304;2023-12-20T00:29:33;28.10;;;4.27;;
29938;SDS011;16799;50.844;5.304;2023-12-20T00:31:58;10.00;;;2.20;;
29938;SDS011;16799;50.844;5.304;2023-12-20T00:34:24;17.63;;;2.57;;
29938;SDS011;16799;50.844;5.304;2023-12-20T00:36:50;10.93;;;1.70;;
29938;SDS011;16799;50.844;5.304;2023-12-20T00:39:15;4.93;;;2.50;;
29938;SDS011;16799;50.844;5.304;2023-12-20T00:41:41;5.77;;;2.20;;
29938;SDS011;16799;50.844;5.304;2023-12-20T00:44:07;4.17;;;2.57;;
29938;SDS011;16799;50.844;5.304;2023-12-20T00:46:32;4.87;;;3.30;;
29938;SDS011;16799;50.844;5.304;2023-12-20T00:48:58;11.17;;;2.83;;
29938;SDS011;16799;50.844;5.304;2023-12-20T00:51:23;5.73;;;2.43;;
29938;SDS011;16799;50.844;5.304;2023-12-20T00:53:50;5.03;;;2.40;;
29938;SDS011;16799;50.844;5.304;2023-12-20T00:56:19;17.93;;;2.83;;
29938;SDS011;16799;50.844;5.304;2023-12-20T00:58:45;3.70;;;2.97;;
29938;SDS011;16799;50.844;5.304;2023-12-20T01:01:11;15.00;;;4.20;;
29938;SDS011;16799;50.844;5.304;2023-12-20T01:03:36;6.73;;;1.90;;
29938;SDS011;16799;50.844;5.304;2023-12-20T01:06:02;5.83;;;3.77;;
29938;SDS011;16799;50.844;5.304;2023-12-20T01:08:29;8.23;;;2.30;;
29938;SDS011;16799;50.844;5.304;2023-12-20T01:10:55;25.10;;;3.13;;
29938;SDS011;16799;50.844;5.304;2023-12-20T01:13:21;20.43;;;2.57;;
29938;SDS011;16799;50.844;5.304;2023-12-20T01:15:46;6.53;;;2.57;;
29938;SDS011;16799;50.844;5.304;2023-12-20T01:18:13;10.13;;;2.20;;
29938;SDS011;16799;50.844;5.304;2023-12-20T01:20:38;12.30;;;3.40;;
29938;SDS011;16799;50.844;5.304;2023-12-20T01:23:05;12.20;;;3.13;;
29938;SDS011;16799;50.844;5.304;2023-12-20T01:25:30;3.90;;;2.70;;
29938;SDS011;16799;50.844;5.304;2023-12-20T01:27:56;19.13;;;3.87;;
29938;SDS011;16799;50.844;5.304;2023-12-20T01:30:22;14.87;;;4.03;;
29938;SDS011;16799;50.844;5.304;2023-12-20T01:32:47;19.33;;;4.20;;
29938;SDS011;16799;50.844;5.304;2023-12-20T01:35:13;12.63;;;4.10;;
29938;SDS011;16799;50.844;5.304;2023-12-20T01:37:39;6.60;;;3.50;;
29938;SDS011;16799;50.844;5.304;2023-12-20T01:40:05;15.30;;;3.67;;
29938;SDS011;16799;50.844;5.304;2023-12-20T01:42:31;14.70;;;3.97;;
29938;SDS011;16799;50.844;5.304;2023-12-20T01:44:57;20.33;;;5.10;;
29938;SDS011;16799;50.844;5.304;2023-12-20T01:47:22;8.00;;;3.13;;
29938;SDS011;16799;50.844;5.304;2023-12-20T01:49:49;25.17;;;3.77;;
29938;SDS011;16799;50.844;5.304;2023-12-20T01:52:15;6.27;;;2.40;;
29938;SDS011;16799;50.844;5.304;2023-12-20T01:54:41;13.77;;;3.20;;
29938;SDS011;16799;50.844;5.304;2023-12-20T01:57:07;11.70;;;3.60;;
29938;SDS011;16799;50.844;5.304;2023-12-20T01:59:34;10.10;;;3.43;;
29938;SDS011;16799;50.844;5.304;2023-12-20T02:02:00;12.67;;;4.13;;
29938;SDS011;16799;50.844;5.304;2023-12-20T02:04:27;14.20;;;3.37;;
29938;SDS011;16799;50.844;5.304;2023-12-20T02:06:53;11.20;;;4.80;;
29938;SDS011;16799;50.844;5.304;2023-12-20T02:09:20;15.13;;;3.27;;
29938;SDS011;16799;50.844;5.304;2023-12-20T02:11:46;7.93;;;3.67;;
29938;SDS011;16799;50.844;5.304;2023-12-20T02:14:12;14.80;;;5.90;;
29938;SDS011;16799;50.844;5.304;2023-12-20T02:16:38;11.60;;;3.83;;
29938;SDS011;16799;50.844;5.304;2023-12-20T02:19:05;4.33;;;2.70;;
29938;SDS011;16799;50.844;5.304;2023-12-20T02:21:38;4.63;;;2.20;;
29938;SDS011;16799;50.844;5.304;2023-12-20T02:24:03;13.03;;;3.47;;
29938;SDS011;16799;50.844;5.304;2023-12-20T02:26:29;6.47;;;3.07;;
29938;SDS011;16799;50.844;5.304;2023-12-20T02:28:59;9.40;;;3.00;;
29938;SDS011;16799;50.844;5.304;2023-12-20T02:31:25;15.13;;;2.60;;
29938;SDS011;16799;50.844;5.304;2023-12-20T02:33:51;8.80;;;3.60;;
29938;SDS011;16799;50.844;5.304;2023-12-20T02:36:16;9.20;;;3.70;;
29938;SDS011;16799;50.844;5.304;2023-12-20T02:38:42;13.37;;;3.07;;
29938;SDS011;16799;50.844;5.304;2023-12-20T02:41:08;8.93;;;3.47;;
29938;SDS011;16799;50.844;5.304;2023-12-20T02:43:33;10.83;;;3.50;;
29938;SDS011;16799;50.844;5.304;2023-12-20T02:45:59;12.43;;;3.33;;
29938;SDS011;16799;50.844;5.304;2023-12-20T02:48:24;10.03;;;3.10;;
29938;SDS011;16799;50.844;5.304;2023-12-20T02:50:50;10.30;;;3.17;;
29938;SDS011;16799;50.844;5.304;2023-12-20T02:53:16;8.30;;;2.80;;
29938;SDS011;16799;50.844;5.304;2023-12-20T02:55:42;13.97;;;3.73;;
29938;SDS011;16799;50.844;5.304;2023-12-20T02:58:08;6.73;;;3.80;;
29938;SDS011;16799;50.844;5.304;2023-12-20T03:00:33;12.97;;;5.63;;
29938;SDS011;16799;50.844;5.304;2023-12-20T03:02:59;10.73;;;2.93;;
29938;SDS011;16799;50.844;5.304;2023-12-20T03:05:24;8.17;;;3.33;;
29938;SDS011;16799;50.844;5.304;2023-12-20T03:07:50;16.17;;;5.00;;
29938;SDS011;16799;50.844;5.304;2023-12-20T03:10:16;13.53;;;2.83;;
29938;SDS011;16799;50.844;5.304;2023-12-20T03:12:43;14.03;;;3.50;;
29938;SDS011;16799;50.844;5.304;2023-12-20T03:15:09;15.23;;;4.10;;
29938;SDS011;16799;50.844;5.304;2023-12-20T03:17:35;4.60;;;3.20;;
29938;SDS011;16799;50.844;5.304;2023-12-20T03:20:01;10.83;;;4.17;;
29938;SDS011;16799;50.844;5.304;2023-12-20T03:22:27;15.77;;;4.47;;
29938;SDS011;16799;50.844;5.304;2023-12-20T03:24:52;8.13;;;4.47;;
29938;SDS011;16799;50.844;5.304;2023-12-20T03:27:18;13.20;;;3.63;;
29938;SDS011;16799;50.844;5.304;2023-12-20T03:29:44;10.23;;;3.47;;
29938;SDS011;16799;50.844;5.304;2023-12-20T03:32:09;6.37;;;3.80;;
29938;SDS011;16799;50.844;5.304;2023-12-20T03:34:35;13.47;;;5.10;;
29938;SDS011;16799;50.844;5.304;2023-12-20T03:37:01;11.10;;;3.33;;
29938;SDS011;16799;50.844;5.304;2023-12-20T03:39:26;22.90;;;4.60;;
29938;SDS011;16799;50.844;5.304;2023-12-20T03:41:52;20.50;;;4.10;;
29938;SDS011;16799;50.844;5.304;2023-12-20T03:44:17;9.13;;;4.33;;
29938;SDS011;16799;50.844;5.304;2023-12-20T03:46:43;10.57;;;4.40;;
29938;SDS011;16799;50.844;5.304;2023-12-20T03:49:10;15.80;;;4.60;;
29938;SDS011;16799;50.844;5.304;2023-12-20T03:51:36;19.17;;;4.63;;
29938;SDS011;16799;50.844;5.304;2023-12-20T03:54:02;22.73;;;5.00;;
29938;SDS011;16799;50.844;5.304;2023-12-20T03:56:28;12.90;;;4.83;;
29938;SDS011;16799;50.844;5.304;2023-12-20T03:58:53;30.37;;;3.40;;
29938;SDS011;16799;50.844;5.304;2023-12-20T04:01:19;13.77;;;3.57;;
29938;SDS011;16799;50.844;5.304;2023-12-20T04:03:44;10.83;;;3.50;;
29938;SDS011;16799;50.844;5.304;2023-12-20T04:06:10;10.00;;;3.90;;
29938;SDS011;16799;50.844;5.304;2023-12-20T04:08:42;9.57;;;3.63;;
29938;SDS011;16799;50.844;5.304;2023-12-20T04:11:07;10.47;;;3.63;;
29938;SDS011;16799;50.844;5.304;2023-12-20T04:13:33;10.40;;;3.93;;
29938;SDS011;16799;50.844;5.304;2023-12-20T04:15:59;27.07;;;5.40;;
29938;SDS011;16799;50.844;5.304;2023-12-20T04:18:24;26.40;;;5.60;;
29938;SDS011;16799;50.844;5.304;2023-12-20T04:20:50;9.53;;;3.40;;
29938;SDS011;16799;50.844;5.304;2023-12-20T04:23:16;14.93;;;4.23;;
29938;SDS011;16799;50.844;5.304;2023-12-20T04:25:42;22.57;;;4.93;;
29938;SDS011;16799;50.844;5.304;2023-12-20T04:28:07;25.27;;;5.27;;
29938;SDS011;16799;50.844;5.304;2023-12-20T04:30:33;12.93;;;4.43;;
29938;SDS011;16799;50.844;5.304;2023-12-20T04:32:59;8.77;;;4.20;;
29938;SDS011;16799;50.844;5.304;2023-12-20T04:35:24;17.43;;;4.73;;
29938;SDS011;16799;50.844;5.304;2023-12-20T04:37:51;8.00;;;3.93;;
29938;SDS011;16799;50.844;5.304;2023-12-20T04:40:16;12.83;;;4.93;;
29938;SDS011;16799;50.844;5.304;2023-12-20T04:42:42;18.37;;;5.00;;
29938;SDS011;16799;50.844;5.304;2023-12-20T04:45:08;14.63;;;5.20;;
29938;SDS011;16799;50.844;5.304;2023-12-20T04:47:34;18.27;;;5.60;;
29938;SDS011;16799;50.844;5.304;2023-12-20T04:49:59;17.90;;;6.40;;
29938;SDS011;16799;50.844;5.304;2023-12-20T04:52:25;24.63;;;6.20;;
29938;SDS011;16799;50.844;5.304;2023-12-20T04:54:50;22.17;;;6.93;;
29938;SDS011;16799;50.844;5.304;2023-12-20T04:57:16;17.50;;;5.73;;
29938;SDS011;16799;50.844;5.304;2023-12-20T04:59:42;16.57;;;4.87;;
29938;SDS011;16799;50.844;5.304;2023-12-20T05:02:07;22.80;;;6.70;;
29938;SDS011;16799;50.844;5.304;2023-12-20T05:04:33;19.87;;;5.97;;
29938;SDS011;16799;50.844;5.304;2023-12-20T05:06:59;11.23;;;5.80;;
29938;SDS011;16799;50.844;5.304;2023-12-20T05:09:24;11.10;;;5.87;;
29938;SDS011;16799;50.844;5.304;2023-12-20T05:11:50;9.60;;;5.23;;
29938;SDS011;16799;50.844;5.304;2023-12-20T05:14:15;15.17;;;5.83;;
29938;SDS011;16799;50.844;5.304;2023-12-20T05:16:41;22.47;;;5.17;;
29938;SDS011;16799;50.844;5.304;2023-12-20T05:19:07;10.67;;;6.50;;
29938;SDS011;16799;50.844;5.304;2023-12-20T05:21:33;22.97;;;9.70;;
29938;SDS011;16799;50.844;5.304;2023-12-20T05:23:58;27.87;;;7.00;;
29938;SDS011;16799;50.844;5.304;2023-12-20T05:26:24;25.53;;;6.90;;
29938;SDS011;16799;50.844;5.304;2023-12-20T05:28:50;13.47;;;6.87;;
29938;SDS011;16799;50.844;5.304;2023-12-20T05:31:15;11.97;;;5.90;;
29938;SDS011;16799;50.844;5.304;2023-12-20T05:33:41;19.33;;;6.33;;
29938;SDS011;16799;50.844;5.304;2023-12-20T05:36:07;19.97;;;5.87;;
29938;SDS011;16799;50.844;5.304;2023-12-20T05:38:36;15.90;;;6.30;;
29938;SDS011;16799;50.844;5.304;2023-12-20T05:41:02;19.53;;;6.80;;
29938;SDS011;16799;50.844;5.304;2023-12-20T05:43:28;12.70;;;6.90;;
29938;SDS011;16799;50.844;5.304;2023-12-20T05:45:54;19.23;;;6.60;;
29938;SDS011;16799;50.844;5.304;2023-12-20T05:48:20;11.87;;;5.43;;
29938;SDS011;16799;50.844;5.304;2023-12-20T05:50:45;10.37;;;4.13;;
29938;SDS011;16799;50.844;5.304;2023-12-20T05:53:11;19.07;;;4.77;;
29938;SDS011;16799;50.844;5.304;2023-12-20T05:55:36;26.33;;;6.07;;
29938;SDS011;16799;50.844;5.304;2023-12-20T05:58:02;19.43;;;5.23;;
29938;SDS011;16799;50.844;5.304;2023-12-20T06:00:28;23.47;;;5.40;;
29938;SDS011;16799;50.844;5.304;2023-12-20T06:02:53;10.07;;;5.17;;
29938;SDS011;16799;50.844;5.304;2023-12-20T06:05:19;20.43;;;6.57;;
29938;SDS011;16799;50.844;5.304;2023-12-20T06:07:45;10.90;;;6.03;;
29938;SDS011;16799;50.844;5.304;2023-12-20T06:10:13;15.47;;;4.80;;
29938;SDS011;16799;50.844;5.304;2023-12-20T06:12:39;23.43;;;7.47;;
29938;SDS011;16799;50.844;5.304;2023-12-20T06:15:05;13.50;;;5.30;;
29938;SDS011;16799;50.844;5.304;2023-12-20T06:17:31;21.63;;;5.80;;
29938;SDS011;16799;50.844;5.304;2023-12-20T06:19:57;23.63;;;5.57;;
29938;SDS011;16799;50.844;5.304;2023-12-20T06:22:22;23.93;;;5.53;;
29938;SDS011;16799;50.844;5.304;2023-12-20T06:24:48;14.47;;;7.60;;
29938;SDS011;16799;50.844;5.304;2023-12-20T06:27:14;11.13;;;5.97;;
29938;SDS011;16799;50.844;5.304;2023-12-20T06:29:39;11.03;;;5.30;;
29938;SDS011;16799;50.844;5.304;2023-12-20T06:32:06;18.30;;;5.63;;
29938;SDS011;16799;50.844;5.304;2023-12-20T06:34:32;19.43;;;6.60;;
29938;SDS011;16799;50.844;5.304;2023-12-20T06:36:57;23.63;;;6.33;;
29938;SDS011;16799;50.844;5.304;2023-12-20T06:39:23;29.43;;;7.30;;
29938;SDS011;16799;50.844;5.304;2023-12-20T06:41:48;16.27;;;6.13;;
29938;SDS011;16799;50.844;5.304;2023-12-20T06:44:14;25.93;;;7.40;;
29938;SDS011;16799;50.844;5.304;2023-12-20T06:46:40;21.43;;;6.30;;
29938;SDS011;16799;50.844;5.304;2023-12-20T06:49:05;14.43;;;5.57;;
29938;SDS011;16799;50.844;5.304;2023-12-20T06:51:31;21.43;;;7.50;;
29938;SDS011;16799;50.844;5.304;2023-12-20T06:53:56;21.63;;;6.33;;
29938;SDS011;16799;50.844;5.304;2023-12-20T06:56:23;18.63;;;5.87;;
29938;SDS011;16799;50.844;5.304;2023-12-20T06:58:49;16.17;;;7.23;;
29938;SDS011;16799;50.844;5.304;2023-12-20T07:01:14;16.33;;;6.63;;
29938;SDS011;16799;50.844;5.304;2023-12-20T07:03:41;10.93;;;6.27;;
29938;SDS011;16799;50.844;5.304;2023-12-20T07:06:07;28.93;;;6.23;;
29938;SDS011;16799;50.844;5.304;2023-12-20T07:08:33;23.00;;;6.60;;
29938;SDS011;16799;50.844;5.304;2023-12-20T07:10:59;23.30;;;6.67;;
29938;SDS011;16799;50.844;5.304;2023-12-20T07:13:24;13.10;;;6.20;;
29938;SDS011;16799;50.844;5.304;2023-12-20T07:15:50;17.90;;;7.47;;
29938;SDS011;16799;50.844;5.304;2023-12-20T07:18:16;14.83;;;6.83;;
29938;SDS011;16799;50.844;5.304;2023-12-20T07:20:42;21.93;;;7.20;;
29938;SDS011;16799;50.844;5.304;2023-12-20T07:23:08;22.37;;;6.20;;
29938;SDS011;16799;50.844;5.304;2023-12-20T07:25:34;27.10;;;6.67;;
29938;SDS011;16799;50.844;5.304;2023-12-20T07:27:59;21.10;;;6.33;;
29938;SDS011;16799;50.844;5.304;2023-12-20T07:30:25;17.87;;;6.20;;
29938;SDS011;16799;50.844;5.304;2023-12-20T07:32:50;30.57;;;7.47;;
29938;SDS011;16799;50.844;5.304;2023-12-20T07:35:17;22.60;;;6.80;;
29938;SDS011;16799;50.844;5.304;2023-12-20T07:37:43;11.33;;;6.80;;
29938;SDS011;16799;50.844;5.304;2023-12-20T07:40:09;20.03;;;6.00;;
29938;SDS011;16799;50.844;5.304;2023-12-20T07:42:35;11.97;;;5.03;;
29938;SDS011;16799;50.844;5.304;2023-12-20T07:45:01;18.77;;;6.87;;
29938;SDS011;16799;50.844;5.304;2023-12-20T07:47:26;9.73;;;6.10;;
29938;SDS011;16799;50.844;5.304;2023-12-20T07:49:52;21.07;;;5.87;;
29938;SDS011;16799;50.844;5.304;2023-12-20T07:52:18;17.50;;;5.63;;
29938;SDS011;16799;50.844;5.304;2023-12-20T07:54:44;19.37;;;9.80;;
29938;SDS011;16799;50.844;5.304;2023-12-20T07:57:10;17.43;;;6.70;;
29938;SDS011;16799;50.844;5.304;2023-12-20T07:59:36;16.00;;;5.87;;
29938;SDS011;16799;50.844;5.304;2023-12-20T08:02:02;17.87;;;6.70;;
29938;SDS011;16799;50.844;5.304;2023-12-20T08:04:28;11.93;;;5.70;;
29938;SDS011;16799;50.844;5.304;2023-12-20T08:06:53;9.27;;;5.43;;
29938;SDS011;16799;50.844;5.304;2023-12-20T08:09:19;23.40;;;6.10;;
29938;SDS011;16799;50.844;5.304;2023-12-20T08:11:48;15.63;;;5.40;;
29938;SDS011;16799;50.844;5.304;2023-12-20T08:14:14;15.30;;;5.77;;
29938;SDS011;16799;50.844;5.304;2023-12-20T08:16:40;12.00;;;5.50;;
29938;SDS011;16799;50.844;5.304;2023-12-20T08:19:06;18.73;;;5.37;;
29938;SDS011;16799;50.844;5.304;2023-12-20T08:21:31;18.03;;;5.13;;
29938;SDS011;16799;50.844;5.304;2023-12-20T08:23:57;22.37;;;5.60;;
29938;SDS011;16799;50.844;5.304;2023-12-20T08:26:23;17.20;;;5.30;;
29938;SDS011;16799;50.844;5.304;2023-12-20T08:28:49;19.83;;;5.50;;
29938;SDS011;16799;50.844;5.304;2023-12-20T08:31:16;23.00;;;8.27;;
29938;SDS011;16799;50.844;5.304;2023-12-20T08:33:46;27.33;;;5.27;;
29938;SDS011;16799;50.844;5.304;2023-12-20T08:36:12;11.70;;;4.07;;
29938;SDS011;16799;50.844;5.304;2023-12-20T08:38:38;24.63;;;5.87;;
29938;SDS011;16799;50.844;5.304;2023-12-20T08:41:04;12.53;;;4.10;;
29938;SDS011;16799;50.844;5.304;2023-12-20T08:43:34;18.57;;;4.30;;
29938;SDS011;16799;50.844;5.304;2023-12-20T08:46:00;14.00;;;4.20;;
29938;SDS011;16799;50.844;5.304;2023-12-20T08:48:26;8.43;;;4.60;;
29938;SDS011;16799;50.844;5.304;2023-12-20T08:50:52;11.97;;;5.13;;
29938;SDS011;16799;50.844;5.304;2023-12-20T08:53:18;10.40;;;3.93;;
29938;SDS011;16799;50.844;5.304;2023-12-20T08:55:44;13.10;;;4.37;;
29938;SDS011;16799;50.844;5.304;2023-12-20T08:58:10;14.73;;;4.37;;
29938;SDS011;16799;50.844;5.304;2023-12-20T09:00:36;16.93;;;3.40;;
29938;SDS011;16799;50.844;5.304;2023-12-20T09:03:03;11.73;;;4.27;;
29938;SDS011;16799;50.844;5.304;2023-12-20T09:05:29;19.73;;;4.00;;
29938;SDS011;16799;50.844;5.304;2023-12-20T09:07:55;13.93;;;3.50;;
29938;SDS011;16799;50.844;5.304;2023-12-20T09:10:21;19.80;;;4.13;;
29938;SDS011;16799;50.844;5.304;2023-12-20T09:12:48;9.30;;;3.03;;
29938;SDS011;16799;50.844;5.304;2023-12-20T09:15:14;19.23;;;4.40;;
29938;SDS011;16799;50.844;5.304;2023-12-20T09:17:40;11.67;;;4.10;;
29938;SDS011;16799;50.844;5.304;2023-12-20T09:20:06;9.93;;;3.57;;
29938;SDS011;16799;50.844;5.304;2023-12-20T09:22:33;27.67;;;4.47;;
29938;SDS011;16799;50.844;5.304;2023-12-20T09:24:59;21.00;;;4.53;;
29938;SDS011;16799;50.844;5.304;2023-12-20T09:27:26;17.57;;;4.07;;
29938;SDS011;16799;50.844;5.304;2023-12-20T09:29:52;13.20;;;3.23;;
29938;SDS011;16799;50.844;5.304;2023-12-20T09:32:18;10.30;;;3.50;;
29938;SDS011;16799;50.844;5.304;2023-12-20T09:34:45;10.33;;;3.17;;
29938;SDS011;16799;50.844;5.304;2023-12-20T09:37:12;7.07;;;2.83;;
29938;SDS011;16799;50.844;5.304;2023-12-20T09:39:38;13.70;;;3.20;;
29938;SDS011;16799;50.844;5.304;2023-12-20T09:42:04;16.67;;;3.30;;
29938;SDS011;16799;50.844;5.304;2023-12-20T09:44:31;15.30;;;2.80;;
29938;SDS011;16799;50.844;5.304;2023-12-20T09:47:04;17.60;;;4.03;;
29938;SDS011;16799;50.844;5.304;2023-12-20T09:49:31;5.00;;;3.37;;
29938;SDS011;16799;50.844;5.304;2023-12-20T09:51:58;12.00;;;4.40;;
29938;SDS011;16799;50.844;5.304;2023-12-20T09:54:25;17.07;;;4.03;;
29938;SDS011;16799;50.844;5.304;2023-12-20T09:56:53;15.73;;;5.40;;
29938;SDS011;16799;50.844;5.304;2023-12-20T09:59:19;9.60;;;3.03;;
29938;SDS011;16799;50.844;5.304;2023-12-20T10:01:45;17.27;;;3.57;;
29938;SDS011;16799;50.844;5.304;2023-12-20T10:04:11;33.77;;;3.60;;
29938;SDS011;16799;50.844;5.304;2023-12-20T10:06:41;17.67;;;4.67;;
29938;SDS011;16799;50.844;5.304;2023-12-20T10:09:08;17.67;;;5.23;;
29938;SDS011;16799;50.844;5.304;2023-12-20T10:11:35;15.90;;;3.00;;
29938;SDS011;16799;50.844;5.304;2023-12-20T10:14:05;11.83;;;3.90;;
29938;SDS011;16799;50.844;5.304;2023-12-20T10:16:31;13.43;;;3.60;;
29938;SDS011;16799;50.844;5.304;2023-12-20T10:18:58;8.20;;;3.63;;
29938;SDS011;16799;50.844;5.304;2023-12-20T10:21:26;10.60;;;4.10;;
29938;SDS011;16799;50.844;5.304;2023-12-20T10:23:52;11.57;;;4.10;;
29938;SDS011;16799;50.844;5.304;2023-12-20T10:26:22;12.97;;;4.27;;
29938;SDS011;16799;50.844;5.304;2023-12-20T10:28:59;14.17;;;3.30;;
29938;SDS011;16799;50.844;5.304;2023-12-20T10:31:31;24.63;;;5.53;;
29938;SDS011;16799;50.844;5.304;2023-12-20T10:33:57;9.83;;;3.80;;
29938;SDS011;16799;50.844;5.304;2023-12-20T10:36:31;15.70;;;4.40;;
29938;SDS011;16799;50.844;5.304;2023-12-20T10:38:58;12.13;;;4.73;;
29938;SDS011;16799;50.844;5.304;2023-12-20T10:41:28;12.07;;;4.70;;
29938;SDS011;16799;50.844;5.304;2023-12-20T10:46:28;11.80;;;4.10;;
29938;SDS011;16799;50.844;5.304;2023-12-20T10:48:55;17.83;;;3.40;;
29938;SDS011;16799;50.844;5.304;2023-12-20T10:51:22;9.50;;;3.37;;
29938;SDS011;16799;50.844;5.304;2023-12-20T10:53:49;8.23;;;3.57;;
29938;SDS011;16799;50.844;5.304;2023-12-20T10:56:16;7.67;;;4.13;;
29938;SDS011;16799;50.844;5.304;2023-12-20T10:58:46;16.40;;;3.37;;
29938;SDS011;16799;50.844;5.304;2023-12-20T11:01:14;24.57;;;3.60;;
29938;SDS011;16799;50.844;5.304;2023-12-20T11:03:51;8.70;;;4.03;;
29938;SDS011;16799;50.844;5.304;2023-12-20T11:09:20;15.67;;;3.73;;
29938;SDS011;16799;50.844;5.304;2023-12-20T11:14:48;15.90;;;3.47;;
29938;SDS011;16799;50.844;5.304;2023-12-20T11:17:14;13.53;;;2.83;;
29938;SDS011;16799;50.844;5.304;2023-12-20T11:22:26;28.37;;;4.13;;
29938;SDS011;16799;50.844;5.304;2023-12-20T11:24:55;24.50;;;4.33;;
29938;SDS011;16799;50.844;5.304;2023-12-20T11:27:28;16.43;;;4.37;;
29938;SDS011;16799;50.844;5.304;2023-12-20T11:29:56;25.30;;;4.50;;
29938;SDS011;16799;50.844;5.304;2023-12-20T11:37:35;11.50;;;3.97;;
29938;SDS011;16799;50.844;5.304;2023-12-20T11:40:03;18.53;;;3.57;;
29938;SDS011;16799;50.844;5.304;2023-12-20T11:42:38;13.70;;;4.33;;
29938;SDS011;16799;50.844;5.304;2023-12-20T11:45:05;10.23;;;3.97;;
29938;SDS011;16799;50.844;5.304;2023-12-20T11:47:49;19.10;;;3.67;;
29938;SDS011;16799;50.844;5.304;2023-12-20T11:50:19;13.27;;;4.50;;
29938;SDS011;16799;50.844;5.304;2023-12-20T11:52:46;8.50;;;3.20;;
29938;SDS011;16799;50.844;5.304;2023-12-20T11:55:12;20.00;;;3.70;;
29938;SDS011;16799;50.844;5.304;2023-12-20T11:57:38;17.60;;;4.27;;
29938;SDS011;16799;50.844;5.304;2023-12-20T12:00:04;11.00;;;3.43;;
29938;SDS011;16799;50.844;5.304;2023-12-20T12:02:31;11.10;;;3.80;;
29938;SDS011;16799;50.844;5.304;2023-12-20T12:04:57;12.80;;;3.27;;
29938;SDS011;16799;50.844;5.304;2023-12-20T12:07:24;9.37;;;3.20;;
29938;SDS011;16799;50.844;5.304;2023-12-20T12:09:50;13.00;;;4.50;;
29938;SDS011;16799;50.844;5.304;2023-12-20T12:12:16;17.50;;;3.13;;
29938;SDS011;16799;50.844;5.304;2023-12-20T12:14:44;11.90;;;3.60;;
29938;SDS011;16799;50.844;5.304;2023-12-20T12:17:13;15.73;;;3.13;;
29938;SDS011;16799;50.844;5.304;2023-12-20T12:19:40;7.67;;;3.10;;
29938;SDS011;16799;50.844;5.304;2023-12-20T12:24:45;16.43;;;3.00;;
29938;SDS011;16799;50.844;5.304;2023-12-20T12:27:14;7.40;;;2.93;;
29938;SDS011;16799;50.844;5.304;2023-12-20T12:29:40;8.83;;;2.90;;
29938;SDS011;16799;50.844;5.304;2023-12-20T12:32:06;12.30;;;3.77;;
29938;SDS011;16799;50.844;5.304;2023-12-20T12:34:33;13.03;;;3.17;;
29938;SDS011;16799;50.844;5.304;2023-12-20T12:36:59;7.77;;;3.20;;
29938;SDS011;16799;50.844;5.304;2023-12-20T12:39:25;17.50;;;3.97;;
29938;SDS011;16799;50.844;5.304;2023-12-20T12:41:51;24.20;;;4.83;;
29938;SDS011;16799;50.844;5.304;2023-12-20T12:44:17;17.40;;;4.10;;
29938;SDS011;16799;50.844;5.304;2023-12-20T12:46:43;12.20;;;3.80;;
29938;SDS011;16799;50.844;5.304;2023-12-20T12:49:14;10.93;;;3.90;;
29938;SDS011;16799;50.844;5.304;2023-12-20T12:51:40;9.10;;;3.20;;
29938;SDS011;16799;50.844;5.304;2023-12-20T12:54:06;13.03;;;3.87;;
29938;SDS011;16799;50.844;5.304;2023-12-20T12:56:31;13.47;;;4.60;;
29938;SDS011;16799;50.844;5.304;2023-12-20T12:58:57;27.70;;;3.97;;
29938;SDS011;16799;50.844;5.304;2023-12-20T13:01:23;7.70;;;2.30;;
29938;SDS011;16799;50.844;5.304;2023-12-20T13:03:49;43.87;;;7.00;;
29938;SDS011;16799;50.844;5.304;2023-12-20T13:06:14;9.67;;;4.20;;
29938;SDS011;16799;50.844;5.304;2023-12-20T13:08:40;15.93;;;4.43;;
29938;SDS011;16799;50.844;5.304;2023-12-20T13:11:06;6.23;;;4.33;;
29938;SDS011;16799;50.844;5.304;2023-12-20T13:13:32;12.03;;;3.77;;
29938;SDS011;16799;50.844;5.304;2023-12-20T13:15:58;15.30;;;4.20;;
29938;SDS011;16799;50.844;5.304;2023-12-20T13:18:23;23.27;;;3.97;;
29938;SDS011;16799;50.844;5.304;2023-12-20T13:20:49;23.87;;;3.83;;
29938;SDS011;16799;50.844;5.304;2023-12-20T13:23:15;13.30;;;4.00;;
29938;SDS011;16799;50.844;5.304;2023-12-20T13:25:43;19.47;;;3.70;;
29938;SDS011;16799;50.844;5.304;2023-12-20T13:28:10;15.47;;;4.37;;
29938;SDS011;16799;50.844;5.304;2023-12-20T13:30:36;24.47;;;4.10;;
29938;SDS011;16799;50.844;5.304;2023-12-20T13:33:02;19.23;;;5.50;;
29938;SDS011;16799;50.844;5.304;2023-12-20T13:35:27;19.97;;;6.27;;
29938;SDS011;16799;50.844;5.304;2023-12-20T13:37:53;13.50;;;4.20;;
29938;SDS011;16799;50.844;5.304;2023-12-20T13:40:19;16.23;;;4.30;;
29938;SDS011;16799;50.844;5.304;2023-12-20T13:42:44;10.90;;;3.50;;
29938;SDS011;16799;50.844;5.304;2023-12-20T13:45:10;8.80;;;4.87;;
29938;SDS011;16799;50.844;5.304;2023-12-20T13:47:36;14.20;;;4.90;;
29938;SDS011;16799;50.844;5.304;2023-12-20T13:50:02;13.70;;;4.97;;
29938;SDS011;16799;50.844;5.304;2023-12-20T13:52:29;7.73;;;3.13;;
29938;SDS011;16799;50.844;5.304;2023-12-20T13:54:55;15.30;;;3.47;;
29938;SDS011;16799;50.844;5.304;2023-12-20T13:57:20;20.43;;;5.10;;
29938;SDS011;16799;50.844;5.304;2023-12-20T13:59:46;6.77;;;4.63;;
29938;SDS011;16799;50.844;5.304;2023-12-20T14:02:11;9.60;;;4.37;;
29938;SDS011;16799;50.844;5.304;2023-12-20T14:04:37;9.20;;;3.93;;
29938;SDS011;16799;50.844;5.304;2023-12-20T14:07:04;12.57;;;3.27;;
29938;SDS011;16799;50.844;5.304;2023-12-20T14:09:30;8.07;;;3.00;;
29938;SDS011;16799;50.844;5.304;2023-12-20T14:11:56;16.43;;;4.40;;
29938;SDS011;16799;50.844;5.304;2023-12-20T14:14:21;17.10;;;4.90;;
29938;SDS011;16799;50.844;5.304;2023-12-20T14:16:47;16.60;;;5.80;;
29938;SDS011;16799;50.844;5.304;2023-12-20T14:19:13;12.60;;;4.53;;
29938;SDS011;16799;50.844;5.304;2023-12-20T14:21:38;15.67;;;3.53;;
29938;SDS011;16799;50.844;5.304;2023-12-20T14:24:04;13.97;;;4.30;;
29938;SDS011;16799;50.844;5.304;2023-12-20T14:26:30;12.17;;;3.13;;
29938;SDS011;16799;50.844;5.304;2023-12-20T14:28:56;14.47;;;4.67;;
29938;SDS011;16799;50.844;5.304;2023-12-20T14:31:22;19.40;;;4.77;;
29938;SDS011;16799;50.844;5.304;2023-12-20T14:33:49;8.43;;;3.83;;
29938;SDS011;16799;50.844;5.304;2023-12-20T14:36:16;8.50;;;4.63;;
29938;SDS011;16799;50.844;5.304;2023-12-20T14:38:43;10.80;;;4.60;;
29938;SDS011;16799;50.844;5.304;2023-12-20T14:41:09;12.23;;;4.43;;
29938;SDS011;16799;50.844;5.304;2023-12-20T14:43:35;23.33;;;5.20;;
29938;SDS011;16799;50.844;5.304;2023-12-20T14:46:00;18.27;;;6.40;;
29938;SDS011;16799;50.844;5.304;2023-12-20T14:48:26;11.00;;;4.10;;
29938;SDS011;16799;50.844;5.304;2023-12-20T14:50:53;17.03;;;5.47;;